Latest Weather Observations for Renmark Airport

IDS60801

Issued at 9:51 am CST Tuesday 14 July 2020 (issued every 10 minutes, with the page automatically refreshed every 10 minutes)

About weather observations | Map of weather stations | Latest weather observations for SA | Other Formats
Station Details ID: 024048 Name: RENMARK AERO Lat: -34.20 Lon: 140.68 Height: 31.5 m
Data from the previous 72 hours. | See also: Recent months at Renmark Airport
Date/Time
CST
Temp
°C
App
Temp
°C
Dew
Point
°C
Rel
Hum
%
Delta-T
°C
Wind Press
QNH
hPa
Press
MSL
hPa
Rain since
9am
mm
Dir  Spd
km/h
Gust
km/h
Spd
kts
Gust
kts
14/09:30am 8.1 5.7 5.4 83 1.2 SE 7 11 4 6 1028.8 1028.8 0.0
14/09:00am 7.1 4.4 5.7 91 0.6 SE 9 11 5 6 1028.6 1028.6 0.2
14/08:30am 5.9 3.5 5.2 95 0.3 S 7 11 4 6 1028.4 1028.4 0.2
14/08:00am 3.4 0.5 2.7 95 0.3 S 7 9 4 5 1028.3 1028.3 0.2
14/07:55am 2.8 -0.2 2.1 95 0.3 S 7 9 4 5 1028.3 1028.3 0.2
14/07:30am 0.6 -2.6 -0.3 94 0.3 SSW 6 7 3 4 1028.3 1028.3 0.2
14/07:17am 0.8 -2.3 -0.1 94 0.3 SSW 6 7 3 4 1028.2 1028.2 0.2
14/07:00am 1.2 -2.1 0.3 94 0.3 SSW 7 7 4 4 1028.1 1028.1 0.2
14/06:30am 2.4 -0.5 1.7 95 0.3 S 6 9 3 5 1027.9 1027.9 0.2
14/06:00am 1.7 -1.5 0.8 94 0.3 S 7 9 4 5 1027.6 1027.6 0.2
14/05:30am 1.9 -1.3 1.0 94 0.3 SSW 7 9 4 5 1027.5 1027.5 0.2
14/05:00am 2.7 -0.7 1.7 93 0.4 SW 9 9 5 5 1027.2 1027.2 0.2
14/04:30am 3.5 0.2 2.5 93 0.4 SSW 9 11 5 6 1027.0 1027.0 0.2
14/04:00am 4.8 1.7 3.8 93 0.4 SSW 9 11 5 6 1026.8 1026.8 0.2
14/03:30am 5.8 3.3 4.8 93 0.4 SW 7 9 4 5 1026.8 1026.8 0.2
14/03:00am 6.0 3.5 4.8 92 0.5 S 7 9 4 5 1027.0 1027.0 0.2
14/02:30am 6.2 3.7 5.0 92 0.5 SSW 7 9 4 5 1027.1 1027.1 0.2
14/02:00am 6.3 3.8 4.9 91 0.6 SSW 7 9 4 5 1027.0 1027.0 0.2
14/01:30am 6.8 5.8 5.4 91 0.6 CALM 0 0 0 0 1026.9 1026.9 0.2
14/01:00am 6.5 5.4 5.0 90 0.7 CALM 0 4 0 2 1026.8 1026.8 0.2
14/12:30am 5.9 3.8 3.7 86 0.9 S 4 7 2 4 1026.9 1026.9 0.2
14/12:00am 7.8 4.7 5.6 86 1.0 SSW 11 13 6 7 1026.9 1026.9 0.2
 
Date/Time
CST
Temp
°C
App
Temp
°C
Dew
Point
°C
Rel
Hum
%
Delta-T
°C
Wind Press
QNH
hPa
Press
MSL
hPa
Rain since
9am
mm
Dir  Spd
km/h
Gust
km/h
Spd
kts
Gust
kts
13/11:30pm 7.8 4.7 5.4 85 1.1 SSW 11 15 6 8 1027.3 1027.3 0.2
13/11:00pm 8.1 5.0 5.4 83 1.2 SSW 11 13 6 7 1027.5 1027.5 0.2
13/10:30pm 8.7 5.6 5.4 80 1.5 SSW 11 15 6 8 1027.5 1027.5 0.2
13/10:00pm 9.4 6.3 5.6 77 1.7 S 11 15 6 8 1027.6 1027.6 0.2
13/09:30pm 10.0 5.7 5.4 73 2.1 SSW 17 22 9 12 1027.5 1027.5 0.2
13/09:00pm 10.3 6.4 5.5 72 2.2 SW 15 19 8 10 1027.4 1027.4 0.2
13/08:30pm 10.7 6.8 5.5 70 2.4 SSW 15 20 8 11 1027.2 1027.2 0.2
13/08:00pm 11.1 7.3 5.6 69 2.5 SW 15 20 8 11 1027.0 1027.0 0.2
13/07:30pm 11.4 7.6 5.7 68 2.6 SW 15 19 8 10 1026.9 1026.9 0.2
13/07:00pm 11.8 8.4 6.1 68 2.7 SSW 13 20 7 11 1026.6 1026.6 0.2
13/06:30pm 12.2 8.8 5.8 65 3.0 SSW 13 17 7 9 1026.1 1026.1 0.2
13/06:00pm 12.6 9.7 4.8 59 3.6 SSW 9 13 5 7 1025.8 1025.8 0.2
13/05:30pm 13.7 10.1 4.8 55 4.1 SSW 13 19 7 10 1025.3 1025.3 0.2
13/05:00pm 15.0 10.9 4.4 49 4.9 S 15 22 8 12 1025.0 1025.0 0.2
13/04:30pm 15.9 11.0 4.0 45 5.5 S 19 26 10 14 1025.0 1025.0 0.2
13/04:00pm 16.3 11.1 3.7 43 5.8 S 20 30 11 16 1024.6 1024.6 0.2
13/03:30pm 16.5 10.7 2.5 39 6.3 SSE 22 32 12 17 1024.4 1024.4 0.2
13/03:00pm 16.9 11.7 3.6 41 6.1 S 20 26 11 14 1024.6 1024.6 0.2
13/02:30pm 16.6 10.7 4.0 43 5.8 S 24 32 13 17 1024.3 1024.3 0.2
13/02:00pm 16.4 11.2 3.8 43 5.8 S 20 28 11 15 1024.3 1024.3 0.2
13/01:30pm 16.0 11.4 5.6 50 5.0 S 19 24 10 13 1024.7 1024.7 0.2
13/01:00pm 15.7 11.2 5.9 52 4.7 S 19 24 10 13 1024.9 1024.9 0.2
13/12:30pm 15.3 10.5 5.5 52 4.6 S 20 32 11 17 1025.4 1025.4 0.0
13/12:00pm 14.6 10.7 6.9 60 3.7 SSW 17 22 9 12 1025.9 1025.9 0.0
13/11:30am 14.1 10.5 6.7 61 3.6 S 15 20 8 11 1026.3 1026.3 0.0
13/11:00am 12.9 9.6 6.5 65 3.1 SSW 13 19 7 10 1026.7 1026.7 0.0
13/10:30am 11.9 8.3 6.6 70 2.5 SSW 15 20 8 11 1026.9 1026.9 0.0
13/10:00am 11.3 8.4 6.6 73 2.2 SW 11 17 6 9 1027.0 1027.0 0.0
13/09:30am 10.5 7.2 6.3 75 1.9 SSW 13 17 7 9 1026.8 1026.8 0.0
13/09:00am 9.4 5.2 5.9 79 1.6 SSW 17 22 9 12 1026.3 1026.3 0.0
13/08:30am 8.5 5.1 5.8 83 1.2 SSW 13 22 7 12 1026.0 1026.0 0.0
13/08:00am 7.0 3.5 5.6 91 0.6 SSW 13 19 7 10 1025.8 1025.8 0.0
13/07:30am 6.1 2.5 5.1 93 0.4 SSW 13 15 7 8 1025.6 1025.6 0.0
13/07:00am 6.1 2.9 4.9 92 0.5 SSW 11 17 6 9 1025.5 1025.5 0.0
13/06:30am 6.4 3.2 5.2 92 0.5 SSW 11 17 6 9 1025.1 1025.1 0.0
13/06:00am 6.4 2.5 5.4 93 0.4 SSW 15 19 8 10 1024.8 1024.8 0.0
13/05:30am 6.6 3.1 5.4 92 0.5 SSW 13 17 7 9 1024.7 1024.7 0.0
13/05:00am 6.8 3.3 5.4 91 0.6 SSW 13 19 7 10 1024.7 1024.7 0.0
13/04:30am 7.1 3.3 5.6 90 0.7 S 15 20 8 11 1024.3 1024.3 0.0
13/04:00am 7.3 3.5 5.8 90 0.7 S 15 22 8 12 1024.0 1024.0 0.0
13/03:30am 7.4 3.6 5.9 90 0.7 SSW 15 20 8 11 1024.0 1024.0 0.0
13/03:00am 7.7 3.9 6.0 89 0.8 SSW 15 20 8 11 1023.9 1023.9 0.0
13/02:30am 7.7 3.9 6.0 89 0.8 SSW 15 20 8 11 1023.7 1023.7 0.0
13/02:00am 7.7 3.9 6.0 89 0.8 SSW 15 19 8 10 1023.5 1023.5 0.0
13/01:30am 8.0 4.3 6.1 88 0.9 SSW 15 19 8 10 1023.3 1023.3 0.0
13/01:00am 8.2 4.5 6.3 88 0.9 SSW 15 19 8 10 1023.3 1023.3 0.0
13/12:30am 8.7 4.7 6.7 87 0.9 S 17 24 9 13 1023.1 1023.1 0.0
13/12:00am 8.8 5.6 6.8 87 0.9 S 13 19 7 10 1023.2 1023.2 0.0
 
Date/Time
CST
Temp
°C
App
Temp
°C
Dew
Point
°C
Rel
Hum
%
Delta-T
°C
Wind Press
QNH
hPa
Press
MSL
hPa
Rain since
9am
mm
Dir  Spd
km/h
Gust
km/h
Spd
kts
Gust
kts
12/11:30pm 9.2 6.1 7.3 88 0.9 SSW 13 17 7 9 1023.2 1023.2 0.0
12/11:00pm 9.6 6.1 7.2 85 1.1 SSW 15 19 8 10 1023.2 1023.2 0.0
12/10:30pm 10.0 6.6 7.6 85 1.1 S 15 20 8 11 1022.9 1022.9 0.0
12/10:00pm 10.3 7.3 7.5 83 1.3 SSW 13 17 7 9 1022.9 1022.9 0.0
12/09:30pm 11.1 7.8 8.0 81 1.5 SSW 15 20 8 11 1022.8 1022.8 0.0
12/09:00pm 10.8 7.9 8.0 83 1.4 SSW 13 19 7 10 1022.7 1022.7 0.0
12/08:30pm 10.2 8.4 8.0 86 1.1 SSW 7 9 4 5 1022.5 1022.5 0.0
12/08:00pm 9.9 7.6 7.5 85 1.1 WSW 9 11 5 6 1022.0 1022.0 0.0
12/07:30pm 9.8 7.8 6.9 82 1.4 WSW 7 9 4 5 1021.9 1021.9 0.0
12/07:00pm 10.2 7.8 7.1 81 1.5 WSW 9 11 5 6 1021.7 1021.7 0.0
12/06:30pm 10.1 7.7 7.2 82 1.4 WSW 9 13 5 7 1021.5 1021.5 0.0
12/06:00pm 10.6 8.5 6.7 77 1.8 SW 7 9 4 5 1020.9 1020.9 0.0
12/05:30pm 11.2 9.2 6.9 75 2.0 SW 7 11 4 6 1020.6 1020.6 0.0
12/05:00pm 12.0 9.6 6.9 71 2.4 SSW 9 13 5 7 1020.2 1020.2 0.0
12/04:30pm 12.3 9.4 6.6 68 2.7 S 11 17 6 9 1019.9 1019.9 0.0
12/04:00pm 12.4 8.9 7.1 70 2.6 SSW 15 19 8 10 1019.8 1019.8 0.0
12/03:30pm 11.7 8.3 7.6 76 2.0 S 15 19 8 10 1019.7 1019.7 0.0
12/03:00pm 12.3 9.3 7.8 74 2.2 S 13 22 7 12 1019.5 1019.5 0.0
12/02:30pm 12.1 9.5 7.8 75 2.1 SSW 11 15 6 8 1019.4 1019.4 0.0
12/02:00pm 11.7 9.1 7.6 76 2.0 SSW 11 20 6 11 1019.4 1019.4 0.0
12/01:41pm 11.0 8.0 7.5 79 1.7 SSW 13 19 7 10 1019.3 1019.3 0.0
12/01:30pm 11.0 7.9 7.3 78 1.8 S 13 20 7 11 1019.3 1019.3 0.0
12/01:00pm 10.9 8.7 8.0 82 1.4 SSW 9 13 5 7 1019.5 1019.5 0.0
12/12:30pm 10.1 7.8 7.3 83 1.3 SSW 9 13 5 7 1019.7 1019.7 0.0
12/12:00pm 9.7 7.1 7.6 87 1.0 SSW 11 20 6 11 1020.1 1020.1 0.0
12/11:30am 9.1 6.4 7.5 90 0.8 SSW 11 17 6 9 1020.2 1020.2 0.0
12/11:00am 8.7 6.5 7.8 94 0.4 SSW 9 15 5 8 1020.3 1020.3 0.0
12/10:30am 8.3 6.1 7.9 97 0.2 S 9 13 5 7 1020.2 1020.2 0.0
12/10:00am 7.7 5.0 7.3 97 0.2 SSE 11 13 6 7 1020.0 1020.0 0.0
12/09:30am 7.5 4.4 7.1 97 0.2 S 13 17 7 9 1019.6 1019.6 0.0
12/09:00am 7.8 4.7 7.4 97 0.2 SSE 13 19 7 10 1019.1 1019.1 1.8
12/08:32am 7.5 5.5 7.1 97 0.2 SSW 7 9 4 5 1018.5 1018.5 1.8
12/08:30am 7.5 5.5 7.1 97 0.2 SSW 7 9 4 5 1018.5 1018.5 1.8
12/08:00am 7.0 4.1 6.6 97 0.2 SSW 11 15 6 8 1018.3 1018.3 1.8
12/07:33am 6.6 4.0 6.2 97 0.2 SSW 9 13 5 7 1018.1 1018.1 1.8
12/07:30am 6.4 3.8 6.0 97 0.2 SW 9 13 5 7 1018.0 1018.0 1.8
12/07:29am 6.3 3.7 5.9 97 0.2 SW 9 13 5 7 1018.0 1018.0 1.8
12/07:00am 5.2 2.7 4.6 96 0.3 WSW 7 9 4 5 1017.4 1017.4 1.8
12/06:30am 4.9 3.6 4.3 96 0.3 CALM 0 0 0 0 1017.0 1017.0 1.8
12/06:00am 5.1 3.9 4.4 95 0.3 CALM 0 0 0 0 1016.8 1016.8 1.8
12/05:30am 5.6 3.1 5.0 96 0.3 W 7 7 4 4 1016.5 1016.5 1.8
12/05:00am 5.3 3.0 4.6 95 0.3 WSW 6 7 3 4 1016.3 1016.3 1.8
12/04:30am 5.4 3.1 4.7 95 0.3 WSW 6 7 3 4 1016.3 1016.3 1.8
12/04:00am 5.3 2.8 4.6 95 0.3 W 7 7 4 4 1016.3 1016.3 1.8
12/03:30am 5.7 2.8 4.8 94 0.4 WSW 9 11 5 6 1016.6 1016.6 1.8
12/03:00am 6.2 3.5 5.5 95 0.3 WSW 9 11 5 6 1016.6 1016.6 1.8
12/02:30am 5.5 2.2 4.6 94 0.4 WSW 11 13 6 7 1016.6 1016.6 1.8
12/02:00am 5.4 3.0 4.4 93 0.4 W 6 9 3 5 1016.6 1016.6 1.8
12/01:30am 5.7 2.8 4.7 93 0.4 WSW 9 9 5 5 1016.6 1016.6 1.8
12/01:00am 6.2 3.4 5.2 93 0.4 WSW 9 13 5 7 1016.5 1016.5 1.8
12/12:30am 6.4 3.7 5.4 93 0.4 SW 9 13 5 7 1016.5 1016.5 1.8
12/12:00am 6.2 3.8 5.3 94 0.4 WSW 7 9 4 5 1016.6 1016.6 1.8
 
Date/Time
CST
Temp
°C
App
Temp
°C
Dew
Point
°C
Rel
Hum
%
Delta-T
°C
Wind Press
QNH
hPa
Press
MSL
hPa
Rain since
9am
mm
Dir  Spd
km/h
Gust
km/h
Spd
kts
Gust
kts
11/11:30pm 5.7 2.8 4.8 94 0.4 WSW 9 11 5 6 1016.9 1016.9 1.8
11/11:00pm 5.2 2.2 4.3 94 0.4 WSW 9 9 5 5 1017.0 1017.0 1.8
11/10:30pm 5.0 2.0 4.1 94 0.4 W 9 9 5 5 1017.2 1017.2 1.8
11/10:00pm 4.8 1.7 3.8 93 0.4 W 9 9 5 5 1017.0 1017.0 1.8
11/09:30pm 5.9 3.4 4.7 92 0.5 W 7 7 4 4 1016.8 1016.8 1.8
11/09:00pm 6.0 3.5 4.6 91 0.6 W 7 9 4 5 1016.9 1016.9 1.8
11/08:30pm 6.4 3.6 5.0 91 0.6 SW 9 9 5 5 1016.7 1016.7 1.8
11/08:00pm 6.5 3.3 5.1 91 0.6 SW 11 13 6 7 1016.6 1016.6 1.8
11/07:30pm 7.1 4.8 5.6 90 0.7 WSW 7 9 4 5 1016.3 1016.3 1.8
11/07:00pm 7.7 6.3 5.5 86 1.0 WSW 2 7 1 4 1016.2 1016.2 1.8
11/06:30pm 8.4 6.3 5.7 83 1.2 WSW 6 7 3 4 1015.8 1015.8 1.8
11/06:00pm 8.7 6.5 6.0 83 1.2 W 7 9 4 5 1015.6 1015.6 1.8
11/05:30pm 9.5 7.2 5.7 77 1.7 W 7 9 4 5 1015.5 1015.5 1.8
11/05:00pm 10.3 7.6 5.7 73 2.1 W 9 13 5 7 1015.2 1015.3 1.8
11/04:30pm 11.7 8.7 5.8 67 2.7 W 11 15 6 8 1015.2 1015.3 1.8
11/04:00pm 13.0 10.1 6.6 65 3.1 W 11 13 6 7 1015.0 1015.1 1.8
11/03:30pm 12.0 9.2 6.9 71 2.4 W 11 15 6 8 1015.1 1015.2 1.8
11/03:00pm 12.5 8.6 7.0 69 2.6 W 17 20 9 11 1015.0 1015.1 1.8
11/02:30pm 12.0 9.5 6.5 69 2.6 W 9 15 5 8 1015.1 1015.2 1.8
11/02:00pm 12.0 9.5 6.5 69 2.6 WNW 9 13 5 7 1015.2 1015.3 1.8
11/01:30pm 12.7 10.0 5.8 63 3.2 WNW 9 17 5 9 1015.5 1015.5 1.8
11/01:00pm 12.0 10.2 7.3 73 2.3 WNW 6 9 3 5 1016.0 1016.0 1.8
11/12:30pm 11.0 9.1 7.5 79 1.7 W 7 11 4 6 1016.5 1016.5 1.8
11/12:00pm 10.4 8.4 8.7 89 0.8 NW 9 13 5 7 1017.1 1017.1 1.8
11/11:56am 10.0 7.5 8.3 89 0.8 WNW 11 15 6 8 1017.3 1017.3 1.8
11/11:38am 9.7 4.9 7.5 86 1.0 W 22 32 12 17 1017.6 1017.6 1.2
11/11:30am 10.6 6.6 6.7 77 1.8 WNW 17 32 9 17 1017.6 1017.6 0.0
11/11:00am 11.2 7.7 7.1 76 2.0 W 15 19 8 10 1017.8 1017.8 0.0
11/10:30am 11.3 9.0 7.6 78 1.8 W 9 15 5 8 1017.9 1017.9 0.0
11/10:00am 10.0 7.9 8.1 88 0.9 W 9 13 5 7 1017.8 1017.8 0.0

Other formats

Comma delimited format used in spreadsheet applications
http://www.bom.gov.au/fwo/IDS60801/IDS60801.95687.axf

JavaScript Object Notation format (JSON) in row-major order
http://www.bom.gov.au/fwo/IDS60801/IDS60801.95687.json

Data quality

Most of these data are generated automatically and are frequently updated. Quality checks on data are not normally performed. It is possible for incorrect values to appear. Refer to information at About Latest Weather Observations and please check the disclaimer before using these data.